Airfield :
LOGIN :

Register | Disclaimer

   EN    FR    IT 

 










Legend :    VFR   Marginal VFR   IFR   Intensive IFR   Very Intensive IFR
Visi :
Ceiling :
>= 8 km
>= 3000ft
5 to 8 km
1000 to 3000 ft
1500m to 5 km
500 to 1000 ft
800 to 1500m
200 to 500 ft
< 800m
< 200 ft
Symbols :   Thunderstorms  Fog  Heavy snow  Heavy precipitations  Wind > 20 kt
SIGMETs :     Misc.  Thunderstorms  Icing  Turbulence  Mountain Waves  Volcanic Ashes







- Airport Elevation : 228 ft
- IATA code : OPO


LPPR - Porto Fr. Sa Carneiro

CURRENT METAR :
  • 220230Z 00000KT CAVOK 11/11 Q1017

EXPIRED METARs :
  • 220200Z 00000KT CAVOK 12/12 Q1017
  • 220130Z 00000KT CAVOK 13/12 Q1017
  • 220100Z 01002KT CAVOK 12/12 Q1017
  • 220030Z 02001KT CAVOK 12/11 Q1017
  • 220000Z 01003KT CAVOK 13/12 Q1018

TAF TAF LPPR
Valid from the 22 at 00:00 until the 23 at 00:00 UTC


212300Z 2200/2224 VRB03KT 9999 FEW012
PROB30
TEMPO 2200/2206 1200 BCFG BKN002
BECMG 2206/2208 26005KT
BECMG 2210/2213 33012KT CAVOK
BECMG 2221/2224 VRB03KT 9999 BKN008
No reported NOTAMs for that airfield.



MET'MAP, your aeronautical weather chart ! - Copyright ORBIFLY December 2007 - Disclaimer

ORBIFLY MET'MAP TEAM :

Programming & Development : Alexandra Zaïnal
Concept & Development : Baudouin d'Aumeries
Co-Development & Prog : Marc-Olivier Méhu
Technical & hardware support : Manuel Goepfert

Contact : metmap@orbifly.com




SOURCES & CREDITS :

   NOAA